sensor_id;sensor_type;location;lat;lon;timestamp;P1;durP1;ratioP1;P2;durP2;ratioP2
78072;SDS011;67281;48.770;11.440;2023-02-22T00:01:40;16.63;;;10.57;;
78072;SDS011;67281;48.770;11.440;2023-02-22T00:04:16;17.43;;;11.97;;
78072;SDS011;67281;48.770;11.440;2023-02-22T00:06:46;16.37;;;11.80;;
78072;SDS011;67281;48.770;11.440;2023-02-22T00:09:15;16.03;;;11.37;;
78072;SDS011;67281;48.770;11.440;2023-02-22T00:11:46;18.47;;;12.53;;
78072;SDS011;67281;48.770;11.440;2023-02-22T00:14:14;14.87;;;11.23;;
78072;SDS011;67281;48.770;11.440;2023-02-22T00:16:40;17.17;;;11.70;;
78072;SDS011;67281;48.770;11.440;2023-02-22T00:19:07;15.50;;;10.20;;
78072;SDS011;67281;48.770;11.440;2023-02-22T00:21:35;12.53;;;9.63;;
78072;SDS011;67281;48.770;11.440;2023-02-22T00:24:02;14.53;;;9.10;;
78072;SDS011;67281;48.770;11.440;2023-02-22T00:26:52;13.27;;;9.10;;
78072;SDS011;67281;48.770;11.440;2023-02-22T00:29:23;13.17;;;9.23;;
78072;SDS011;67281;48.770;11.440;2023-02-22T00:31:50;14.77;;;9.90;;
78072;SDS011;67281;48.770;11.440;2023-02-22T00:34:17;12.17;;;9.20;;
78072;SDS011;67281;48.770;11.440;2023-02-22T00:36:47;14.17;;;8.73;;
78072;SDS011;67281;48.770;11.440;2023-02-22T00:39:15;12.67;;;9.70;;
78072;SDS011;67281;48.770;11.440;2023-02-22T00:41:42;12.90;;;9.07;;
78072;SDS011;67281;48.770;11.440;2023-02-22T00:44:09;13.23;;;9.73;;
78072;SDS011;67281;48.770;11.440;2023-02-22T00:46:37;13.37;;;9.23;;
78072;SDS011;67281;48.770;11.440;2023-02-22T00:49:04;13.87;;;9.43;;
78072;SDS011;67281;48.770;11.440;2023-02-22T00:51:30;15.43;;;10.13;;
78072;SDS011;67281;48.770;11.440;2023-02-22T00:53:59;11.90;;;8.97;;
78072;SDS011;67281;48.770;11.440;2023-02-22T00:56:26;11.73;;;9.07;;
78072;SDS011;67281;48.770;11.440;2023-02-22T00:58:53;10.50;;;7.63;;
78072;SDS011;67281;48.770;11.440;2023-02-22T01:01:19;8.97;;;7.23;;
78072;SDS011;67281;48.770;11.440;2023-02-22T01:03:46;7.40;;;6.50;;
78072;SDS011;67281;48.770;11.440;2023-02-22T01:06:13;8.47;;;6.60;;
78072;SDS011;67281;48.770;11.440;2023-02-22T01:08:42;9.80;;;6.83;;
78072;SDS011;67281;48.770;11.440;2023-02-22T01:11:10;8.13;;;6.43;;
78072;SDS011;67281;48.770;11.440;2023-02-22T01:13:38;8.30;;;6.37;;
78072;SDS011;67281;48.770;11.440;2023-02-22T01:16:04;7.50;;;6.13;;
78072;SDS011;67281;48.770;11.440;2023-02-22T01:18:34;8.90;;;6.63;;
78072;SDS011;67281;48.770;11.440;2023-02-22T01:21:04;9.93;;;7.10;;
78072;SDS011;67281;48.770;11.440;2023-02-22T01:23:31;8.43;;;6.43;;
78072;SDS011;67281;48.770;11.440;2023-02-22T01:25:58;6.67;;;5.90;;
78072;SDS011;67281;48.770;11.440;2023-02-22T01:28:25;7.13;;;6.13;;
78072;SDS011;67281;48.770;11.440;2023-02-22T01:30:51;6.33;;;5.07;;
78072;SDS011;67281;48.770;11.440;2023-02-22T01:33:22;8.30;;;5.97;;
78072;SDS011;67281;48.770;11.440;2023-02-22T01:35:49;7.10;;;5.17;;
78072;SDS011;67281;48.770;11.440;2023-02-22T01:38:16;8.13;;;5.80;;
78072;SDS011;67281;48.770;11.440;2023-02-22T01:40:45;6.33;;;5.30;;
78072;SDS011;67281;48.770;11.440;2023-02-22T01:43:28;6.13;;;5.07;;
78072;SDS011;67281;48.770;11.440;2023-02-22T01:46:06;8.67;;;5.20;;
78072;SDS011;67281;48.770;11.440;2023-02-22T01:48:48;9.73;;;5.57;;
78072;SDS011;67281;48.770;11.440;2023-02-22T01:53:54;6.23;;;4.90;;
78072;SDS011;67281;48.770;11.440;2023-02-22T01:56:24;8.80;;;5.10;;
78072;SDS011;67281;48.770;11.440;2023-02-22T01:59:05;6.03;;;5.13;;
78072;SDS011;67281;48.770;11.440;2023-02-22T02:01:38;6.40;;;4.60;;
78072;SDS011;67281;48.770;11.440;2023-02-22T02:04:15;8.57;;;5.43;;
78072;SDS011;67281;48.770;11.440;2023-02-22T02:06:46;7.23;;;5.27;;
78072;SDS011;67281;48.770;11.440;2023-02-22T02:09:21;5.40;;;4.80;;
78072;SDS011;67281;48.770;11.440;2023-02-22T02:11:56;7.37;;;4.93;;
78072;SDS011;67281;48.770;11.440;2023-02-22T02:14:26;6.83;;;4.80;;
78072;SDS011;67281;48.770;11.440;2023-02-22T02:16:52;5.53;;;4.83;;
78072;SDS011;67281;48.770;11.440;2023-02-22T02:19:25;7.83;;;4.60;;
78072;SDS011;67281;48.770;11.440;2023-02-22T02:22:18;6.00;;;5.10;;
78072;SDS011;67281;48.770;11.440;2023-02-22T02:30:53;6.10;;;5.03;;
78072;SDS011;67281;48.770;11.440;2023-02-22T02:33:28;7.87;;;5.80;;
78072;SDS011;67281;48.770;11.440;2023-02-22T02:36:01;7.77;;;5.70;;
78072;SDS011;67281;48.770;11.440;2023-02-22T02:41:56;8.67;;;6.27;;
78072;SDS011;67281;48.770;11.440;2023-02-22T02:44:30;6.97;;;5.47;;
78072;SDS011;67281;48.770;11.440;2023-02-22T02:47:04;7.67;;;5.63;;
78072;SDS011;67281;48.770;11.440;2023-02-22T02:49:45;8.13;;;6.03;;
78072;SDS011;67281;48.770;11.440;2023-02-22T02:52:17;11.27;;;6.50;;
78072;SDS011;67281;48.770;11.440;2023-02-22T02:54:46;7.67;;;6.80;;
78072;SDS011;67281;48.770;11.440;2023-02-22T02:57:14;8.37;;;6.67;;
78072;SDS011;67281;48.770;11.440;2023-02-22T02:59:41;8.87;;;6.90;;
78072;SDS011;67281;48.770;11.440;2023-02-22T03:02:25;8.07;;;7.00;;
78072;SDS011;67281;48.770;11.440;2023-02-22T03:10:52;7.70;;;6.30;;
78072;SDS011;67281;48.770;11.440;2023-02-22T03:13:32;7.73;;;5.87;;
78072;SDS011;67281;48.770;11.440;2023-02-22T03:22:14;7.53;;;6.33;;
78072;SDS011;67281;48.770;11.440;2023-02-22T03:24:48;9.37;;;6.60;;
78072;SDS011;67281;48.770;11.440;2023-02-22T03:27:25;9.07;;;6.70;;
78072;SDS011;67281;48.770;11.440;2023-02-22T03:30:24;11.00;;;7.53;;
78072;SDS011;67281;48.770;11.440;2023-02-22T03:33:02;11.53;;;8.13;;
78072;SDS011;67281;48.770;11.440;2023-02-22T03:35:36;8.13;;;6.83;;
78072;SDS011;67281;48.770;11.440;2023-02-22T03:38:08;10.70;;;7.87;;
78072;SDS011;67281;48.770;11.440;2023-02-22T03:40:40;10.77;;;6.87;;
78072;SDS011;67281;48.770;11.440;2023-02-22T03:43:12;9.33;;;7.00;;
78072;SDS011;67281;48.770;11.440;2023-02-22T03:45:44;9.60;;;6.87;;
78072;SDS011;67281;48.770;11.440;2023-02-22T03:51:10;9.60;;;6.90;;
78072;SDS011;67281;48.770;11.440;2023-02-22T03:53:42;9.50;;;7.50;;
78072;SDS011;67281;48.770;11.440;2023-02-22T03:56:21;9.63;;;7.60;;
78072;SDS011;67281;48.770;11.440;2023-02-22T03:58:52;10.07;;;7.60;;
78072;SDS011;67281;48.770;11.440;2023-02-22T04:01:20;9.23;;;7.27;;
78072;SDS011;67281;48.770;11.440;2023-02-22T04:03:49;8.13;;;6.13;;
78072;SDS011;67281;48.770;11.440;2023-02-22T04:06:16;6.80;;;5.77;;
78072;SDS011;67281;48.770;11.440;2023-02-22T04:08:42;8.20;;;6.90;;
78072;SDS011;67281;48.770;11.440;2023-02-22T04:11:09;7.93;;;6.00;;
78072;SDS011;67281;48.770;11.440;2023-02-22T04:13:36;10.07;;;7.30;;
78072;SDS011;67281;48.770;11.440;2023-02-22T04:16:03;10.03;;;6.80;;
78072;SDS011;67281;48.770;11.440;2023-02-22T04:18:30;7.90;;;6.43;;
78072;SDS011;67281;48.770;11.440;2023-02-22T04:20:56;8.83;;;6.13;;
78072;SDS011;67281;48.770;11.440;2023-02-22T04:23:23;8.37;;;6.17;;
78072;SDS011;67281;48.770;11.440;2023-02-22T04:25:50;7.47;;;6.67;;
78072;SDS011;67281;48.770;11.440;2023-02-22T04:28:16;8.60;;;6.57;;
78072;SDS011;67281;48.770;11.440;2023-02-22T04:30:43;11.80;;;7.20;;
78072;SDS011;67281;48.770;11.440;2023-02-22T04:33:11;8.90;;;6.47;;
78072;SDS011;67281;48.770;11.440;2023-02-22T04:35:38;7.30;;;6.50;;
78072;SDS011;67281;48.770;11.440;2023-02-22T04:38:05;10.43;;;6.50;;
78072;SDS011;67281;48.770;11.440;2023-02-22T04:40:31;7.93;;;6.20;;
78072;SDS011;67281;48.770;11.440;2023-02-22T04:42:58;6.50;;;5.73;;
78072;SDS011;67281;48.770;11.440;2023-02-22T04:45:25;8.80;;;6.20;;
78072;SDS011;67281;48.770;11.440;2023-02-22T04:47:52;10.07;;;5.97;;
78072;SDS011;67281;48.770;11.440;2023-02-22T04:50:19;7.73;;;5.93;;
78072;SDS011;67281;48.770;11.440;2023-02-22T04:52:45;8.37;;;6.43;;
78072;SDS011;67281;48.770;11.440;2023-02-22T04:55:12;9.07;;;5.97;;
78072;SDS011;67281;48.770;11.440;2023-02-22T04:57:39;8.60;;;6.83;;
78072;SDS011;67281;48.770;11.440;2023-02-22T05:00:06;9.13;;;7.33;;
78072;SDS011;67281;48.770;11.440;2023-02-22T05:02:37;10.47;;;7.20;;
78072;SDS011;67281;48.770;11.440;2023-02-22T05:05:05;8.33;;;7.20;;
78072;SDS011;67281;48.770;11.440;2023-02-22T05:07:32;11.87;;;7.50;;
78072;SDS011;67281;48.770;11.440;2023-02-22T05:09:58;10.83;;;6.97;;
78072;SDS011;67281;48.770;11.440;2023-02-22T05:12:28;8.77;;;6.43;;
78072;SDS011;67281;48.770;11.440;2023-02-22T05:14:55;9.97;;;6.20;;
78072;SDS011;67281;48.770;11.440;2023-02-22T05:17:22;6.60;;;5.80;;
78072;SDS011;67281;48.770;11.440;2023-02-22T05:19:48;7.30;;;6.50;;
78072;SDS011;67281;48.770;11.440;2023-02-22T05:22:15;9.13;;;6.60;;
78072;SDS011;67281;48.770;11.440;2023-02-22T05:24:43;10.43;;;6.53;;
78072;SDS011;67281;48.770;11.440;2023-02-22T05:27:09;9.90;;;6.37;;
78072;SDS011;67281;48.770;11.440;2023-02-22T05:29:40;7.37;;;6.30;;
78072;SDS011;67281;48.770;11.440;2023-02-22T05:32:07;7.03;;;6.10;;
78072;SDS011;67281;48.770;11.440;2023-02-22T05:34:33;8.93;;;6.50;;
78072;SDS011;67281;48.770;11.440;2023-02-22T05:37:00;8.87;;;6.37;;
78072;SDS011;67281;48.770;11.440;2023-02-22T05:39:29;8.43;;;6.63;;
78072;SDS011;67281;48.770;11.440;2023-02-22T05:41:56;7.63;;;6.83;;
78072;SDS011;67281;48.770;11.440;2023-02-22T05:44:23;10.40;;;6.90;;
78072;SDS011;67281;48.770;11.440;2023-02-22T05:46:50;9.23;;;6.70;;
78072;SDS011;67281;48.770;11.440;2023-02-22T05:49:16;10.10;;;8.00;;
78072;SDS011;67281;48.770;11.440;2023-02-22T05:51:43;9.77;;;7.30;;
78072;SDS011;67281;48.770;11.440;2023-02-22T05:54:10;7.70;;;6.77;;
78072;SDS011;67281;48.770;11.440;2023-02-22T05:56:37;7.30;;;6.57;;
78072;SDS011;67281;48.770;11.440;2023-02-22T05:59:03;8.53;;;6.60;;
78072;SDS011;67281;48.770;11.440;2023-02-22T06:01:30;12.33;;;8.17;;
78072;SDS011;67281;48.770;11.440;2023-02-22T06:03:57;10.67;;;6.50;;
78072;SDS011;67281;48.770;11.440;2023-02-22T06:06:24;7.37;;;6.47;;
78072;SDS011;67281;48.770;11.440;2023-02-22T06:08:51;11.60;;;7.50;;
78072;SDS011;67281;48.770;11.440;2023-02-22T06:11:18;9.70;;;7.70;;
78072;SDS011;67281;48.770;11.440;2023-02-22T06:13:51;8.70;;;6.83;;
78072;SDS011;67281;48.770;11.440;2023-02-22T06:16:19;11.97;;;7.77;;
78072;SDS011;67281;48.770;11.440;2023-02-22T06:18:47;14.87;;;8.57;;
78072;SDS011;67281;48.770;11.440;2023-02-22T06:21:15;9.07;;;7.23;;
78072;SDS011;67281;48.770;11.440;2023-02-22T06:23:43;11.73;;;7.63;;
78072;SDS011;67281;48.770;11.440;2023-02-22T06:26:10;9.30;;;7.37;;
78072;SDS011;67281;48.770;11.440;2023-02-22T06:28:37;10.73;;;8.30;;
78072;SDS011;67281;48.770;11.440;2023-02-22T06:31:05;15.13;;;10.67;;
78072;SDS011;67281;48.770;11.440;2023-02-22T06:33:32;16.27;;;11.23;;
78072;SDS011;67281;48.770;11.440;2023-02-22T06:35:59;17.23;;;12.17;;
78072;SDS011;67281;48.770;11.440;2023-02-22T06:38:26;13.77;;;10.90;;
78072;SDS011;67281;48.770;11.440;2023-02-22T06:40:53;14.97;;;10.47;;
78072;SDS011;67281;48.770;11.440;2023-02-22T06:43:21;19.40;;;11.27;;
78072;SDS011;67281;48.770;11.440;2023-02-22T06:45:50;21.27;;;10.13;;
78072;SDS011;67281;48.770;11.440;2023-02-22T06:48:18;27.30;;;10.30;;
78072;SDS011;67281;48.770;11.440;2023-02-22T06:50:45;25.57;;;10.40;;
78072;SDS011;67281;48.770;11.440;2023-02-22T06:53:12;27.07;;;9.83;;
78072;SDS011;67281;48.770;11.440;2023-02-22T06:55:39;26.27;;;10.83;;
78072;SDS011;67281;48.770;11.440;2023-02-22T06:58:06;50.43;;;10.40;;
78072;SDS011;67281;48.770;11.440;2023-02-22T07:00:33;57.07;;;10.33;;
78072;SDS011;67281;48.770;11.440;2023-02-22T07:03:00;49.67;;;10.33;;
78072;SDS011;67281;48.770;11.440;2023-02-22T07:05:30;82.63;;;11.70;;
78072;SDS011;67281;48.770;11.440;2023-02-22T07:08:02;61.60;;;11.03;;
78072;SDS011;67281;48.770;11.440;2023-02-22T07:10:31;128.40;;;12.80;;
78072;SDS011;67281;48.770;11.440;2023-02-22T07:12:59;93.83;;;12.50;;
78072;SDS011;67281;48.770;11.440;2023-02-22T07:15:27;104.87;;;11.57;;
78072;SDS011;67281;48.770;11.440;2023-02-22T07:17:56;161.07;;;15.80;;
78072;SDS011;67281;48.770;11.440;2023-02-22T07:20:23;50.07;;;12.20;;
78072;SDS011;67281;48.770;11.440;2023-02-22T07:22:54;65.27;;;11.87;;
78072;SDS011;67281;48.770;11.440;2023-02-22T07:25:21;79.10;;;12.17;;
78072;SDS011;67281;48.770;11.440;2023-02-22T07:27:49;52.77;;;12.33;;
78072;SDS011;67281;48.770;11.440;2023-02-22T07:30:25;32.67;;;12.07;;
78072;SDS011;67281;48.770;11.440;2023-02-22T07:32:57;29.40;;;13.43;;
78072;SDS011;67281;48.770;11.440;2023-02-22T07:35:26;89.33;;;17.43;;
78072;SDS011;67281;48.770;11.440;2023-02-22T07:37:55;86.47;;;14.27;;
78072;SDS011;67281;48.770;11.440;2023-02-22T07:40:23;32.30;;;11.97;;
78072;SDS011;67281;48.770;11.440;2023-02-22T07:42:53;15.77;;;11.67;;
78072;SDS011;67281;48.770;11.440;2023-02-22T07:45:31;22.90;;;12.50;;
78072;SDS011;67281;48.770;11.440;2023-02-22T07:48:00;29.47;;;13.10;;
78072;SDS011;67281;48.770;11.440;2023-02-22T07:50:29;28.63;;;10.83;;
78072;SDS011;67281;48.770;11.440;2023-02-22T07:52:59;19.87;;;11.07;;
78072;SDS011;67281;48.770;11.440;2023-02-22T07:55:29;20.77;;;11.40;;
78072;SDS011;67281;48.770;11.440;2023-02-22T07:57:58;22.40;;;10.60;;
78072;SDS011;67281;48.770;11.440;2023-02-22T08:00:33;24.07;;;9.77;;
78072;SDS011;67281;48.770;11.440;2023-02-22T08:03:03;18.27;;;9.20;;
78072;SDS011;67281;48.770;11.440;2023-02-22T08:05:31;10.00;;;9.00;;
78072;SDS011;67281;48.770;11.440;2023-02-22T08:07:59;13.67;;;9.50;;
78072;SDS011;67281;48.770;11.440;2023-02-22T08:10:26;13.67;;;9.47;;
78072;SDS011;67281;48.770;11.440;2023-02-22T08:12:53;10.60;;;8.90;;
78072;SDS011;67281;48.770;11.440;2023-02-22T08:15:25;11.63;;;9.43;;
78072;SDS011;67281;48.770;11.440;2023-02-22T08:17:54;12.20;;;9.23;;
78072;SDS011;67281;48.770;11.440;2023-02-22T08:20:24;10.90;;;9.43;;
78072;SDS011;67281;48.770;11.440;2023-02-22T08:22:51;12.07;;;9.47;;
78072;SDS011;67281;48.770;11.440;2023-02-22T08:25:19;13.30;;;9.50;;
78072;SDS011;67281;48.770;11.440;2023-02-22T08:27:47;12.47;;;10.23;;
78072;SDS011;67281;48.770;11.440;2023-02-22T08:30:16;11.40;;;10.20;;
78072;SDS011;67281;48.770;11.440;2023-02-22T08:32:45;10.73;;;8.93;;
78072;SDS011;67281;48.770;11.440;2023-02-22T08:35:13;11.57;;;9.23;;
78072;SDS011;67281;48.770;11.440;2023-02-22T08:37:45;12.33;;;9.13;;
78072;SDS011;67281;48.770;11.440;2023-02-22T08:40:15;9.13;;;7.33;;
78072;SDS011;67281;48.770;11.440;2023-02-22T08:42:43;10.47;;;9.37;;
78072;SDS011;67281;48.770;11.440;2023-02-22T08:45:10;12.57;;;10.00;;
78072;SDS011;67281;48.770;11.440;2023-02-22T08:47:37;11.17;;;8.63;;
78072;SDS011;67281;48.770;11.440;2023-02-22T08:50:04;10.90;;;9.80;;
78072;SDS011;67281;48.770;11.440;2023-02-22T08:52:32;10.53;;;9.40;;
78072;SDS011;67281;48.770;11.440;2023-02-22T08:55:00;10.20;;;9.17;;
78072;SDS011;67281;48.770;11.440;2023-02-22T08:57:27;10.87;;;9.77;;
78072;SDS011;67281;48.770;11.440;2023-02-22T08:59:54;10.93;;;9.43;;
78072;SDS011;67281;48.770;11.440;2023-02-22T09:02:21;11.33;;;9.23;;
78072;SDS011;67281;48.770;11.440;2023-02-22T09:04:48;10.30;;;8.63;;
78072;SDS011;67281;48.770;11.440;2023-02-22T09:07:15;10.13;;;8.50;;
78072;SDS011;67281;48.770;11.440;2023-02-22T09:09:43;10.17;;;9.10;;
78072;SDS011;67281;48.770;11.440;2023-02-22T09:12:10;10.33;;;8.97;;
78072;SDS011;67281;48.770;11.440;2023-02-22T09:14:37;9.20;;;8.20;;
78072;SDS011;67281;48.770;11.440;2023-02-22T09:17:04;9.83;;;8.57;;
78072;SDS011;67281;48.770;11.440;2023-02-22T09:19:31;11.47;;;8.97;;
78072;SDS011;67281;48.770;11.440;2023-02-22T09:21:58;10.47;;;8.67;;
78072;SDS011;67281;48.770;11.440;2023-02-22T09:24:27;10.53;;;9.47;;
78072;SDS011;67281;48.770;11.440;2023-02-22T09:26:54;9.77;;;8.70;;
78072;SDS011;67281;48.770;11.440;2023-02-22T09:29:23;10.50;;;8.73;;
78072;SDS011;67281;48.770;11.440;2023-02-22T09:31:52;11.30;;;8.73;;
78072;SDS011;67281;48.770;11.440;2023-02-22T09:34:21;9.83;;;8.67;;
78072;SDS011;67281;48.770;11.440;2023-02-22T09:36:55;9.43;;;8.40;;
78072;SDS011;67281;48.770;11.440;2023-02-22T09:39:23;9.43;;;8.53;;
78072;SDS011;67281;48.770;11.440;2023-02-22T09:47:23;11.37;;;8.07;;
78072;SDS011;67281;48.770;11.440;2023-02-22T09:50:01;8.53;;;7.70;;
78072;SDS011;67281;48.770;11.440;2023-02-22T09:55:33;9.93;;;8.53;;
78072;SDS011;67281;48.770;11.440;2023-02-22T09:58:25;13.03;;;8.63;;
78072;SDS011;67281;48.770;11.440;2023-02-22T10:03:58;10.03;;;8.43;;
78072;SDS011;67281;48.770;11.440;2023-02-22T10:07:14;9.20;;;8.10;;
78072;SDS011;67281;48.770;11.440;2023-02-22T10:10:02;9.93;;;8.00;;
78072;SDS011;67281;48.770;11.440;2023-02-22T10:12:38;8.47;;;7.67;;
78072;SDS011;67281;48.770;11.440;2023-02-22T10:15:23;8.07;;;7.23;;
78072;SDS011;67281;48.770;11.440;2023-02-22T10:26:47;9.37;;;8.40;;
78072;SDS011;67281;48.770;11.440;2023-02-22T10:29:39;10.20;;;7.57;;
78072;SDS011;67281;48.770;11.440;2023-02-22T10:32:10;11.23;;;9.40;;
78072;SDS011;67281;48.770;11.440;2023-02-22T10:34:47;8.77;;;6.73;;
78072;SDS011;67281;48.770;11.440;2023-02-22T10:37:30;7.87;;;6.50;;
78072;SDS011;67281;48.770;11.440;2023-02-22T10:40:01;7.53;;;6.67;;
78072;SDS011;67281;48.770;11.440;2023-02-22T10:43:22;10.30;;;7.90;;
78072;SDS011;67281;48.770;11.440;2023-02-22T10:45:56;9.23;;;6.87;;
78072;SDS011;67281;48.770;11.440;2023-02-22T10:48:29;9.57;;;7.20;;
78072;SDS011;67281;48.770;11.440;2023-02-22T10:51:01;8.93;;;7.60;;
78072;SDS011;67281;48.770;11.440;2023-02-22T10:53:31;8.20;;;7.30;;
78072;SDS011;67281;48.770;11.440;2023-02-22T10:56:08;13.57;;;9.00;;
78072;SDS011;67281;48.770;11.440;2023-02-22T10:58:49;9.03;;;8.10;;
78072;SDS011;67281;48.770;11.440;2023-02-22T11:06:45;9.27;;;7.40;;
78072;SDS011;67281;48.770;11.440;2023-02-22T11:09:15;8.53;;;6.17;;
78072;SDS011;67281;48.770;11.440;2023-02-22T11:11:50;7.67;;;6.50;;
78072;SDS011;67281;48.770;11.440;2023-02-22T11:14:37;10.30;;;6.73;;
78072;SDS011;67281;48.770;11.440;2023-02-22T11:17:05;8.80;;;6.63;;
78072;SDS011;67281;48.770;11.440;2023-02-22T11:19:34;7.13;;;5.80;;
78072;SDS011;67281;48.770;11.440;2023-02-22T11:24:33;6.90;;;6.20;;
78072;SDS011;67281;48.770;11.440;2023-02-22T11:27:22;12.03;;;7.40;;
78072;SDS011;67281;48.770;11.440;2023-02-22T11:29:55;7.23;;;5.73;;
78072;SDS011;67281;48.770;11.440;2023-02-22T11:32:34;8.63;;;6.57;;
78072;SDS011;67281;48.770;11.440;2023-02-22T11:35:17;8.80;;;6.20;;
78072;SDS011;67281;48.770;11.440;2023-02-22T11:37:46;9.80;;;6.23;;
78072;SDS011;67281;48.770;11.440;2023-02-22T11:40:23;7.53;;;6.43;;
78072;SDS011;67281;48.770;11.440;2023-02-22T11:43:07;12.60;;;6.63;;
78072;SDS011;67281;48.770;11.440;2023-02-22T11:45:38;9.23;;;6.70;;
78072;SDS011;67281;48.770;11.440;2023-02-22T11:48:28;7.63;;;6.03;;
78072;SDS011;67281;48.770;11.440;2023-02-22T11:51:14;9.13;;;6.77;;
78072;SDS011;67281;48.770;11.440;2023-02-22T12:20:00;9.20;;;5.53;;
78072;SDS011;67281;48.770;11.440;2023-02-22T12:22:34;6.73;;;5.33;;
78072;SDS011;67281;48.770;11.440;2023-02-22T12:25:19;7.47;;;5.20;;
78072;SDS011;67281;48.770;11.440;2023-02-22T12:27:51;10.27;;;6.57;;
78072;SDS011;67281;48.770;11.440;2023-02-22T12:30:45;10.57;;;5.33;;
78072;SDS011;67281;48.770;11.440;2023-02-22T12:33:23;8.93;;;5.63;;
78072;SDS011;67281;48.770;11.440;2023-02-22T12:35:55;5.40;;;4.50;;
78072;SDS011;67281;48.770;11.440;2023-02-22T12:41:21;7.00;;;4.97;;
78072;SDS011;67281;48.770;11.440;2023-02-22T12:44:17;6.17;;;5.13;;
78072;SDS011;67281;48.770;11.440;2023-02-22T12:46:54;4.93;;;4.43;;
78072;SDS011;67281;48.770;11.440;2023-02-22T12:55:08;6.97;;;5.40;;
78072;SDS011;67281;48.770;11.440;2023-02-22T12:57:52;7.93;;;4.67;;
78072;SDS011;67281;48.770;11.440;2023-02-22T13:00:43;7.93;;;4.77;;
78072;SDS011;67281;48.770;11.440;2023-02-22T13:14:31;7.10;;;5.43;;
78072;SDS011;67281;48.770;11.440;2023-02-22T13:17:34;5.97;;;4.40;;
78072;SDS011;67281;48.770;11.440;2023-02-22T13:20:13;5.17;;;4.63;;
78072;SDS011;67281;48.770;11.440;2023-02-22T13:25:26;7.33;;;5.13;;
78072;SDS011;67281;48.770;11.440;2023-02-22T13:28:09;10.47;;;7.63;;
78072;SDS011;67281;48.770;11.440;2023-02-22T13:40:11;8.90;;;5.90;;
78072;SDS011;67281;48.770;11.440;2023-02-22T13:49:05;12.20;;;6.43;;
78072;SDS011;67281;48.770;11.440;2023-02-22T13:57:03;7.87;;;7.13;;
78072;SDS011;67281;48.770;11.440;2023-02-22T13:59:42;6.73;;;5.73;;
78072;SDS011;67281;48.770;11.440;2023-02-22T14:02:31;7.97;;;5.50;;
78072;SDS011;67281;48.770;11.440;2023-02-22T14:05:35;7.63;;;6.00;;
78072;SDS011;67281;48.770;11.440;2023-02-22T14:08:37;7.03;;;5.50;;
78072;SDS011;67281;48.770;11.440;2023-02-22T14:16:26;16.40;;;6.53;;
78072;SDS011;67281;48.770;11.440;2023-02-22T14:19:04;16.13;;;5.87;;
78072;SDS011;67281;48.770;11.440;2023-02-22T14:21:59;9.10;;;6.40;;
78072;SDS011;67281;48.770;11.440;2023-02-22T14:24:48;8.07;;;6.13;;
78072;SDS011;67281;48.770;11.440;2023-02-22T14:27:16;11.70;;;6.23;;
78072;SDS011;67281;48.770;11.440;2023-02-22T14:29:48;7.43;;;5.83;;
78072;SDS011;67281;48.770;11.440;2023-02-22T14:32:28;8.60;;;5.77;;
78072;SDS011;67281;48.770;11.440;2023-02-22T14:34:57;6.70;;;5.47;;
78072;SDS011;67281;48.770;11.440;2023-02-22T14:37:57;7.23;;;5.53;;
78072;SDS011;67281;48.770;11.440;2023-02-22T14:40:27;7.20;;;5.77;;
78072;SDS011;67281;48.770;11.440;2023-02-22T14:45:38;10.27;;;6.23;;
78072;SDS011;67281;48.770;11.440;2023-02-22T14:48:25;6.43;;;5.83;;
78072;SDS011;67281;48.770;11.440;2023-02-22T14:50:59;9.83;;;6.27;;
78072;SDS011;67281;48.770;11.440;2023-02-22T14:53:59;7.83;;;6.13;;
78072;SDS011;67281;48.770;11.440;2023-02-22T15:02:03;8.53;;;6.20;;
78072;SDS011;67281;48.770;11.440;2023-02-22T15:04:37;7.40;;;5.60;;
78072;SDS011;67281;48.770;11.440;2023-02-22T15:07:18;6.83;;;5.80;;
78072;SDS011;67281;48.770;11.440;2023-02-22T15:09:45;7.40;;;5.70;;
78072;SDS011;67281;48.770;11.440;2023-02-22T15:12:22;5.73;;;5.23;;
78072;SDS011;67281;48.770;11.440;2023-02-22T15:17:56;23.43;;;17.80;;
78072;SDS011;67281;48.770;11.440;2023-02-22T15:20:29;13.23;;;7.47;;
78072;SDS011;67281;48.770;11.440;2023-02-22T15:22:59;12.00;;;6.73;;
78072;SDS011;67281;48.770;11.440;2023-02-22T15:25:27;5.77;;;5.10;;
78072;SDS011;67281;48.770;11.440;2023-02-22T15:28:00;8.73;;;5.57;;
78072;SDS011;67281;48.770;11.440;2023-02-22T15:30:35;10.90;;;5.83;;
78072;SDS011;67281;48.770;11.440;2023-02-22T15:33:10;7.77;;;5.17;;
78072;SDS011;67281;48.770;11.440;2023-02-22T15:35:40;10.03;;;5.57;;
78072;SDS011;67281;48.770;11.440;2023-02-22T15:40:38;7.70;;;7.00;;
78072;SDS011;67281;48.770;11.440;2023-02-22T15:43:17;7.13;;;6.23;;
78072;SDS011;67281;48.770;11.440;2023-02-22T15:45:52;6.43;;;5.63;;
78072;SDS011;67281;48.770;11.440;2023-02-22T15:48:27;6.43;;;5.83;;
78072;SDS011;67281;48.770;11.440;2023-02-22T15:53:47;5.97;;;5.30;;
78072;SDS011;67281;48.770;11.440;2023-02-22T15:56:17;8.23;;;5.93;;
78072;SDS011;67281;48.770;11.440;2023-02-22T15:58:51;8.20;;;5.53;;
78072;SDS011;67281;48.770;11.440;2023-02-22T16:01:39;9.33;;;5.80;;
78072;SDS011;67281;48.770;11.440;2023-02-22T16:04:21;8.93;;;6.60;;
78072;SDS011;67281;48.770;11.440;2023-02-22T16:06:52;13.60;;;6.70;;
78072;SDS011;67281;48.770;11.440;2023-02-22T16:09:29;15.87;;;7.60;;
78072;SDS011;67281;48.770;11.440;2023-02-22T16:12:08;13.13;;;7.90;;
78072;SDS011;67281;48.770;11.440;2023-02-22T16:14:45;9.13;;;6.83;;
78072;SDS011;67281;48.770;11.440;2023-02-22T16:20:39;10.27;;;7.80;;
78072;SDS011;67281;48.770;11.440;2023-02-22T16:22:47;10.97;;;8.17;;
78072;SDS011;67281;48.770;11.440;2023-02-22T16:27:46;17.67;;;9.83;;
78072;SDS011;67281;48.770;11.440;2023-02-22T16:32:55;13.60;;;8.57;;
78072;SDS011;67281;48.770;11.440;2023-02-22T16:35:26;10.60;;;8.80;;
78072;SDS011;67281;48.770;11.440;2023-02-22T16:38:04;11.53;;;7.67;;
78072;SDS011;67281;48.770;11.440;2023-02-22T16:40:34;9.67;;;6.73;;
78072;SDS011;67281;48.770;11.440;2023-02-22T16:43:08;10.10;;;6.37;;
78072;SDS011;67281;48.770;11.440;2023-02-22T16:45:39;6.93;;;5.93;;
78072;SDS011;67281;48.770;11.440;2023-02-22T16:48:16;10.83;;;6.87;;
78072;SDS011;67281;48.770;11.440;2023-02-22T16:50:47;12.57;;;7.03;;
78072;SDS011;67281;48.770;11.440;2023-02-22T16:53:17;11.97;;;7.03;;
78072;SDS011;67281;48.770;11.440;2023-02-22T16:55:50;12.10;;;7.53;;
78072;SDS011;67281;48.770;11.440;2023-02-22T16:58:23;7.57;;;6.37;;
78072;SDS011;67281;48.770;11.440;2023-02-22T17:00:55;11.37;;;6.60;;
78072;SDS011;67281;48.770;11.440;2023-02-22T17:03:23;7.30;;;6.57;;
78072;SDS011;67281;48.770;11.440;2023-02-22T17:05:51;10.33;;;6.57;;
78072;SDS011;67281;48.770;11.440;2023-02-22T17:08:19;8.50;;;6.63;;
78072;SDS011;67281;48.770;11.440;2023-02-22T17:10:46;11.37;;;7.03;;
78072;SDS011;67281;48.770;11.440;2023-02-22T17:13:21;11.33;;;8.57;;
78072;SDS011;67281;48.770;11.440;2023-02-22T17:15:52;10.53;;;8.30;;
78072;SDS011;67281;48.770;11.440;2023-02-22T17:18:21;10.17;;;6.67;;
78072;SDS011;67281;48.770;11.440;2023-02-22T17:20:50;7.13;;;6.17;;
78072;SDS011;67281;48.770;11.440;2023-02-22T17:23:21;8.80;;;6.50;;
78072;SDS011;67281;48.770;11.440;2023-02-22T17:25:58;7.80;;;6.17;;
78072;SDS011;67281;48.770;11.440;2023-02-22T17:28:28;11.03;;;8.23;;
78072;SDS011;67281;48.770;11.440;2023-02-22T17:30:56;12.70;;;6.83;;